createdAt,value
2023-10-05T00:02:11.769Z,50.80
2023-10-05T00:04:46.282Z,50.50
2023-10-05T00:07:21.572Z,49.80
2023-10-05T00:09:50.183Z,49.50
2023-10-05T00:12:24.157Z,49.50
2023-10-05T00:15:10.138Z,49.60
2023-10-05T00:17:40.104Z,50.00
2023-10-05T00:20:12.133Z,50.60
2023-10-05T00:22:41.702Z,50.70
2023-10-05T00:25:12.174Z,51.20
2023-10-05T00:27:45.226Z,52.10
2023-10-05T00:30:18.112Z,51.80
2023-10-05T00:32:57.070Z,52.50
2023-10-05T00:35:28.370Z,53.30
2023-10-05T00:38:00.574Z,53.10
2023-10-05T00:40:36.270Z,53.00
2023-10-05T00:43:09.779Z,53.60
2023-10-05T00:45:40.601Z,53.30
2023-10-05T00:48:15.019Z,53.00
2023-10-05T00:50:47.518Z,52.50
2023-10-05T00:53:17.634Z,52.40
2023-10-05T00:55:52.616Z,52.40
2023-10-05T00:58:23.751Z,52.30
2023-10-05T01:00:53.138Z,52.40
2023-10-05T01:03:35.347Z,52.00
2023-10-05T01:06:13.538Z,51.50
2023-10-05T01:08:51.260Z,51.10
2023-10-05T01:11:27.818Z,51.10
2023-10-05T01:14:02.041Z,51.10
2023-10-05T01:16:33.831Z,51.30
2023-10-05T01:19:09.633Z,51.00
2023-10-05T01:21:40.410Z,51.20
2023-10-05T01:24:12.215Z,50.90
2023-10-05T01:26:42.166Z,50.50
2023-10-05T01:29:10.775Z,50.30
2023-10-05T01:31:40.503Z,50.20
2023-10-05T01:34:09.494Z,50.10
2023-10-05T01:36:38.275Z,50.20
2023-10-05T01:39:10.543Z,49.80
2023-10-05T01:41:40.331Z,49.70
2023-10-05T01:44:10.309Z,49.60
2023-10-05T01:46:40.244Z,49.60
2023-10-05T01:49:27.442Z,49.70
2023-10-05T01:51:57.542Z,50.00
2023-10-05T01:54:29.947Z,50.40
2023-10-05T01:57:09.177Z,50.20
2023-10-05T01:59:40.720Z,50.30
2023-10-05T02:02:11.418Z,50.20
2023-10-05T02:04:46.357Z,50.50
2023-10-05T02:07:16.539Z,50.90
2023-10-05T02:09:45.471Z,51.90
2023-10-05T02:12:15.391Z,51.30
2023-10-05T02:14:43.937Z,51.00
2023-10-05T02:17:15.005Z,50.90
2023-10-05T02:19:44.198Z,50.50
2023-10-05T02:22:14.024Z,50.50
2023-10-05T02:24:43.470Z,49.90
2023-10-05T02:27:13.233Z,49.60
2023-10-05T02:29:44.460Z,49.70
2023-10-05T02:32:16.665Z,50.00
2023-10-05T02:35:00.986Z,50.30
2023-10-05T02:37:32.866Z,50.40
2023-10-05T02:40:01.393Z,50.10
2023-10-05T02:42:31.884Z,50.10
2023-10-05T02:45:04.810Z,50.10
2023-10-05T02:47:33.479Z,50.10
2023-10-05T02:50:01.885Z,50.20
2023-10-05T02:52:33.762Z,50.70
2023-10-05T02:55:07.306Z,50.70
2023-10-05T02:57:37.808Z,50.40
2023-10-05T03:00:10.062Z,50.10
2023-10-05T03:02:46.750Z,50.00
2023-10-05T03:05:15.741Z,49.70
2023-10-05T03:07:45.074Z,49.30
2023-10-05T03:10:17.600Z,49.40
2023-10-05T03:12:46.401Z,49.10
2023-10-05T03:15:16.195Z,49.70
2023-10-05T03:17:49.868Z,49.40
2023-10-05T03:20:21.316Z,49.30
2023-10-05T03:22:49.669Z,49.60
2023-10-05T03:25:20.855Z,49.50
2023-10-05T03:27:49.927Z,49.50
2023-10-05T03:30:27.784Z,49.70
2023-10-05T03:33:01.679Z,50.10
2023-10-05T03:35:33.869Z,50.30
2023-10-05T03:38:04.658Z,51.10
2023-10-05T03:40:37.724Z,51.70
2023-10-05T03:43:07.085Z,51.50
2023-10-05T03:45:41.123Z,51.70
2023-10-05T03:48:11.436Z,51.20
2023-10-05T03:50:40.323Z,50.70
2023-10-05T03:53:16.927Z,50.60
2023-10-05T03:55:48.396Z,50.40
2023-10-05T03:58:17.523Z,49.90
2023-10-05T04:00:50.638Z,49.80
2023-10-05T04:03:20.497Z,49.90
2023-10-05T04:05:49.330Z,49.50
2023-10-05T04:08:18.348Z,49.40
2023-10-05T04:10:50.871Z,49.30
2023-10-05T04:13:22.062Z,49.30
2023-10-05T04:15:53.161Z,49.20
2023-10-05T04:18:22.648Z,48.90
2023-10-05T04:20:54.362Z,49.10
2023-10-05T04:23:28.797Z,49.00
2023-10-05T04:25:58.833Z,49.00
2023-10-05T04:28:40.710Z,49.20
2023-10-05T04:31:15.188Z,49.50
2023-10-05T04:33:45.182Z,49.80
2023-10-05T04:36:14.420Z,50.20
2023-10-05T04:38:43.408Z,50.50
2023-10-05T04:41:13.765Z,50.20
2023-10-05T04:43:42.891Z,50.20
2023-10-05T04:46:12.730Z,49.80
2023-10-05T04:48:41.077Z,50.00
2023-10-05T04:51:15.047Z,50.40
2023-10-05T04:53:43.913Z,50.40
2023-10-05T04:56:24.017Z,50.50
2023-10-05T04:59:15.509Z,50.40
2023-10-05T05:01:58.340Z,50.10
2023-10-05T05:04:53.458Z,49.80
2023-10-05T05:07:22.587Z,49.40
2023-10-05T05:09:53.816Z,49.20
2023-10-05T05:12:25.702Z,49.40
2023-10-05T05:14:54.826Z,49.40
2023-10-05T05:17:24.741Z,49.30
2023-10-05T05:19:54.089Z,49.00
2023-10-05T05:22:22.699Z,48.70
2023-10-05T05:24:51.836Z,48.70
2023-10-05T05:27:23.558Z,48.50
2023-10-05T05:29:54.212Z,48.80
2023-10-05T05:32:24.571Z,49.20
2023-10-05T05:34:53.515Z,49.80
2023-10-05T05:37:30.999Z,49.20
2023-10-05T05:40:14.119Z,49.60
2023-10-05T05:42:46.476Z,50.20
2023-10-05T05:45:18.102Z,50.70
2023-10-05T05:47:49.024Z,50.70
2023-10-05T05:50:19.088Z,51.00
2023-10-05T05:52:49.245Z,51.50
2023-10-05T05:55:22.289Z,51.80
2023-10-05T05:57:52.866Z,51.60
2023-10-05T06:00:21.869Z,52.40
2023-10-05T06:02:52.869Z,53.10
2023-10-05T06:05:23.637Z,52.90
2023-10-05T06:07:52.600Z,53.00
2023-10-05T06:10:29.740Z,53.70
2023-10-05T06:12:59.701Z,53.30
2023-10-05T06:15:28.851Z,52.80
2023-10-05T06:18:00.653Z,52.70
2023-10-05T06:20:29.192Z,52.50
2023-10-05T06:22:57.557Z,52.20
2023-10-05T06:25:26.721Z,51.90
2023-10-05T06:27:55.231Z,51.70
2023-10-05T06:30:23.977Z,51.10
2023-10-05T06:32:54.757Z,49.80
2023-10-05T06:35:24.604Z,50.30
2023-10-05T06:37:53.356Z,50.50
2023-10-05T06:40:23.785Z,50.70
2023-10-05T06:42:53.660Z,50.70
2023-10-05T06:45:24.579Z,50.00
2023-10-05T06:47:53.151Z,50.20
2023-10-05T06:50:24.815Z,50.10
2023-10-05T06:52:54.579Z,50.10
2023-10-05T06:55:24.390Z,50.30
2023-10-05T06:57:53.613Z,50.10
2023-10-05T07:00:22.717Z,50.20
2023-10-05T07:02:52.496Z,50.70
2023-10-05T07:05:21.360Z,50.90
2023-10-05T07:07:49.708Z,50.60
2023-10-05T07:10:19.474Z,50.40
2023-10-05T07:12:48.488Z,49.60
2023-10-05T07:15:19.101Z,50.40
2023-10-05T07:17:49.176Z,50.20
2023-10-05T07:20:18.107Z,50.30
2023-10-05T07:22:49.178Z,50.00
2023-10-05T07:25:19.901Z,49.90
2023-10-05T07:27:49.722Z,50.00
2023-10-05T07:30:18.618Z,49.90
2023-10-05T07:32:52.511Z,50.50
2023-10-05T07:35:29.582Z,48.70
2023-10-05T07:37:57.953Z,48.50
2023-10-05T07:40:29.312Z,49.30
2023-10-05T07:42:57.853Z,48.50
2023-10-05T07:45:26.309Z,48.60
2023-10-05T07:47:54.650Z,48.70
2023-10-05T07:50:24.772Z,48.90
2023-10-05T07:52:53.161Z,49.20
2023-10-05T07:55:21.562Z,49.10
2023-10-05T07:57:52.590Z,49.00
2023-10-05T08:00:21.456Z,49.20
2023-10-05T08:02:50.094Z,49.20
2023-10-05T08:05:19.056Z,49.10
2023-10-05T08:07:47.591Z,49.00
2023-10-05T08:10:17.255Z,48.70
2023-10-05T08:12:49.002Z,47.90
2023-10-05T08:15:19.974Z,48.00
2023-10-05T08:17:50.305Z,48.20
2023-10-05T08:20:23.610Z,48.90
2023-10-05T08:22:57.521Z,47.90
2023-10-05T08:25:26.677Z,48.10
2023-10-05T08:27:57.158Z,48.90
2023-10-05T08:30:27.445Z,49.10
2023-10-05T08:33:02.088Z,49.00
2023-10-05T08:35:42.732Z,49.60
2023-10-05T08:38:17.242Z,49.40
2023-10-05T08:40:46.477Z,49.30
2023-10-05T08:43:18.231Z,47.90
2023-10-05T08:45:52.574Z,48.80
2023-10-05T08:48:29.665Z,48.70
2023-10-05T08:51:08.069Z,48.30
2023-10-05T08:53:42.307Z,48.90
2023-10-05T08:56:14.483Z,47.50
2023-10-05T08:58:46.361Z,47.20
2023-10-05T09:01:28.875Z,47.00
2023-10-05T09:04:04.918Z,47.60
2023-10-05T09:06:34.476Z,47.70
2023-10-05T09:09:14.640Z,46.40
2023-10-05T09:11:44.081Z,47.80
2023-10-05T09:14:19.281Z,47.50
2023-10-05T09:16:56.704Z,47.80
2023-10-05T09:19:31.185Z,47.90
2023-10-05T09:22:14.001Z,48.00
2023-10-05T09:24:55.547Z,48.30
2023-10-05T09:27:28.235Z,48.50
2023-10-05T09:30:10.789Z,48.50
2023-10-05T09:32:42.352Z,47.30
2023-10-05T09:35:28.864Z,48.10
2023-10-05T09:37:59.786Z,47.80
2023-10-05T09:40:30.221Z,48.70
2023-10-05T09:43:00.227Z,48.00
2023-10-05T09:45:32.165Z,47.90
2023-10-05T09:48:03.329Z,47.90
2023-10-05T09:50:33.378Z,47.80
2023-10-05T09:53:03.802Z,47.90
2023-10-05T09:55:32.973Z,48.10
2023-10-05T09:58:07.220Z,46.70
2023-10-05T10:00:49.569Z,47.00
2023-10-05T10:03:21.288Z,46.80
2023-10-05T10:05:57.141Z,47.20
2023-10-05T10:08:29.352Z,47.80
2023-10-05T10:11:05.082Z,48.70
2023-10-05T10:13:39.472Z,47.80
2023-10-05T10:16:22.583Z,47.40
2023-10-05T10:18:59.951Z,46.10
2023-10-05T10:21:34.966Z,46.60
2023-10-05T10:24:05.204Z,46.60
2023-10-05T10:26:33.875Z,46.50
2023-10-05T10:29:09.727Z,46.40
2023-10-05T10:31:45.651Z,46.50
2023-10-05T10:34:30.577Z,47.40
2023-10-05T10:36:59.221Z,47.10
2023-10-05T10:39:29.167Z,47.20
2023-10-05T10:42:08.693Z,47.20
2023-10-05T10:44:59.214Z,47.50
2023-10-05T10:47:29.158Z,48.00
2023-10-05T10:50:13.095Z,47.20
2023-10-05T10:52:44.180Z,47.10
2023-10-05T10:55:16.251Z,48.00
2023-10-05T10:57:48.250Z,48.20
2023-10-05T11:00:35.578Z,48.00
2023-10-05T11:03:12.151Z,48.50
2023-10-05T11:05:45.273Z,48.60
2023-10-05T11:08:13.977Z,46.70
2023-10-05T11:10:44.096Z,46.50
2023-10-05T11:13:19.685Z,46.10
2023-10-05T11:15:59.909Z,45.80
2023-10-05T11:18:31.994Z,45.70
2023-10-05T11:21:13.822Z,45.90
2023-10-05T11:23:46.577Z,45.90
2023-10-05T11:26:30.290Z,45.40
2023-10-05T11:29:08.582Z,44.60
2023-10-05T11:32:08.951Z,43.50
2023-10-05T11:35:08.764Z,44.20
2023-10-05T11:37:21.664Z,42.60
2023-10-05T11:39:50.971Z,43.30
2023-10-05T11:42:25.895Z,43.80
2023-10-05T11:44:57.290Z,43.60
2023-10-05T11:47:34.158Z,43.00
2023-10-05T11:50:08.764Z,44.10
2023-10-05T11:52:40.145Z,44.60
2023-10-05T11:55:12.935Z,45.60
2023-10-05T11:57:42.068Z,43.70
2023-10-05T12:00:14.190Z,44.00
2023-10-05T12:02:44.325Z,43.50
2023-10-05T12:05:13.889Z,42.10
2023-10-05T12:07:46.834Z,42.20
2023-10-05T12:10:15.876Z,41.80
2023-10-05T12:12:51.459Z,42.40
2023-10-05T12:15:23.790Z,41.40
2023-10-05T12:17:52.372Z,40.80
2023-10-05T12:20:22.221Z,42.00
2023-10-05T12:22:52.509Z,42.80
2023-10-05T12:25:28.934Z,42.50
2023-10-05T12:27:58.119Z,43.10
2023-10-05T12:30:26.669Z,43.50
2023-10-05T12:32:56.417Z,42.20
2023-10-05T12:35:30.602Z,42.70
2023-10-05T12:38:00.386Z,42.50
2023-10-05T12:40:35.795Z,42.90
2023-10-05T12:43:17.089Z,43.70
2023-10-05T12:45:48.200Z,43.30
2023-10-05T12:48:16.924Z,42.30
2023-10-05T12:50:48.370Z,42.10
2023-10-05T12:53:18.059Z,42.50
2023-10-05T12:55:46.559Z,42.20
2023-10-05T12:58:15.340Z,42.20
2023-10-05T13:00:45.654Z,42.50
2023-10-05T13:03:14.973Z,42.90
2023-10-05T13:05:46.880Z,42.80
2023-10-05T13:08:17.544Z,42.30
2023-10-05T13:10:49.710Z,42.80
2023-10-05T13:13:25.313Z,42.60
2023-10-05T13:15:55.015Z,41.80
2023-10-05T13:18:27.144Z,43.30
2023-10-05T13:20:56.656Z,42.80
2023-10-05T13:23:28.225Z,42.40
2023-10-05T13:25:58.052Z,41.80
2023-10-05T13:28:26.698Z,41.40
2023-10-05T13:30:57.131Z,40.80
2023-10-05T13:33:30.439Z,42.40
2023-10-05T13:36:00.116Z,41.60
2023-10-05T13:38:29.719Z,42.00
2023-10-05T13:41:08.591Z,41.70
2023-10-05T13:43:38.481Z,42.40
2023-10-05T13:46:14.609Z,42.80
2023-10-05T13:48:44.870Z,42.80
2023-10-05T13:51:17.289Z,43.20
2023-10-05T13:53:48.752Z,43.30
2023-10-05T13:56:18.555Z,43.10
2023-10-05T13:58:48.837Z,43.30
2023-10-05T14:01:18.652Z,43.20
2023-10-05T14:03:49.307Z,42.50
2023-10-05T14:06:18.877Z,43.20
2023-10-05T14:08:47.426Z,42.40
2023-10-05T14:11:15.953Z,42.90
2023-10-05T14:13:45.712Z,42.90
2023-10-05T14:16:15.366Z,43.10
2023-10-05T14:18:44.104Z,43.60
2023-10-05T14:21:13.239Z,44.70
2023-10-05T14:23:41.661Z,43.40
2023-10-05T14:26:11.634Z,43.80
2023-10-05T14:28:40.130Z,43.10
2023-10-05T14:31:10.365Z,43.00
2023-10-05T14:33:38.838Z,42.70
2023-10-05T14:36:12.724Z,43.60
2023-10-05T14:38:42.569Z,43.80
2023-10-05T14:41:11.157Z,43.30
2023-10-05T14:43:45.816Z,42.20
2023-10-05T14:46:22.519Z,42.90
2023-10-05T14:48:51.439Z,42.90
2023-10-05T14:51:19.829Z,42.50
2023-10-05T14:53:50.331Z,42.30
2023-10-05T14:56:18.737Z,42.30
2023-10-05T14:58:47.201Z,43.20
2023-10-05T15:01:21.136Z,42.90
2023-10-05T15:03:50.695Z,43.20
2023-10-05T15:06:19.897Z,44.30
2023-10-05T15:08:51.108Z,43.00
2023-10-05T15:11:19.556Z,43.30
2023-10-05T15:13:47.954Z,43.10
2023-10-05T15:16:16.341Z,43.30
2023-10-05T15:18:46.351Z,43.70
2023-10-05T15:21:14.706Z,43.40
2023-10-05T15:23:43.382Z,43.70
2023-10-05T15:26:12.519Z,42.60
2023-10-05T15:28:44.357Z,42.70
2023-10-05T15:31:13.694Z,43.40
2023-10-05T15:33:42.880Z,43.20
2023-10-05T15:36:13.152Z,43.10
2023-10-05T15:38:41.504Z,43.30
2023-10-05T15:41:10.879Z,43.20
2023-10-05T15:43:41.466Z,43.60
2023-10-05T15:46:11.442Z,43.50
2023-10-05T15:48:43.799Z,44.00
2023-10-05T15:51:13.764Z,44.00
2023-10-05T15:53:52.864Z,43.70
2023-10-05T15:56:21.330Z,43.60
2023-10-05T15:58:49.894Z,43.00
2023-10-05T16:01:18.360Z,42.90
2023-10-05T16:03:46.806Z,42.70
2023-10-05T16:06:23.510Z,43.50
2023-10-05T16:08:53.892Z,43.70
2023-10-05T16:11:22.500Z,43.90
2023-10-05T16:13:51.941Z,43.30
2023-10-05T16:16:20.502Z,43.40
2023-10-05T16:18:48.021Z,43.20
2023-10-05T16:21:16.320Z,43.50
2023-10-05T16:23:46.024Z,43.70
2023-10-05T16:26:14.450Z,44.30
2023-10-05T16:28:43.270Z,44.20
2023-10-05T16:31:14.594Z,44.20
2023-10-05T16:33:44.499Z,44.80
2023-10-05T16:36:13.338Z,44.60
2023-10-05T16:38:42.984Z,44.40
2023-10-05T16:41:15.243Z,44.70
2023-10-05T16:43:43.583Z,45.10
2023-10-05T16:46:13.784Z,45.10
2023-10-05T16:48:42.289Z,45.60
2023-10-05T16:51:12.043Z,45.10
2023-10-05T16:53:40.482Z,46.30
2023-10-05T16:56:09.480Z,45.60
2023-10-05T16:58:39.362Z,45.60
2023-10-05T17:01:07.829Z,45.90
2023-10-05T17:03:37.523Z,46.00
2023-10-05T17:06:06.739Z,45.90
2023-10-05T17:08:35.156Z,46.20
2023-10-05T17:11:03.461Z,45.80
2023-10-05T17:13:32.847Z,45.70
2023-10-05T17:16:03.198Z,45.40
2023-10-05T17:18:32.861Z,45.40
2023-10-05T17:21:01.392Z,45.70
2023-10-05T17:23:30.666Z,45.70
2023-10-05T17:25:59.111Z,46.10
2023-10-05T17:28:28.871Z,45.70
2023-10-05T17:31:00.468Z,45.90
2023-10-05T17:33:32.034Z,46.00
2023-10-05T17:36:00.637Z,46.30
2023-10-05T17:38:30.244Z,45.90
2023-10-05T17:40:59.154Z,45.60
2023-10-05T17:43:29.347Z,46.50
2023-10-05T17:45:57.851Z,47.40
2023-10-05T17:48:28.700Z,46.60
2023-10-05T17:51:00.684Z,46.80
2023-10-05T17:53:29.614Z,46.80
2023-10-05T17:55:58.145Z,46.80
2023-10-05T17:58:28.106Z,46.30
2023-10-05T18:00:57.916Z,46.20
2023-10-05T18:03:29.914Z,46.90
2023-10-05T18:06:06.244Z,46.70
2023-10-05T18:08:37.022Z,46.90
2023-10-05T18:11:06.115Z,46.80
2023-10-05T18:13:34.576Z,47.10
2023-10-05T18:16:03.814Z,47.30
2023-10-05T18:18:35.194Z,48.10
2023-10-05T18:21:06.367Z,47.50
2023-10-05T18:23:34.946Z,47.20
2023-10-05T18:26:03.396Z,48.10
2023-10-05T18:28:32.888Z,48.50
2023-10-05T18:31:04.521Z,48.60
2023-10-05T18:33:33.023Z,48.30
2023-10-05T18:36:02.186Z,48.40
2023-10-05T18:38:32.014Z,48.20
2023-10-05T18:41:07.912Z,48.40
2023-10-05T18:43:36.439Z,48.60
2023-10-05T18:46:05.574Z,49.10
2023-10-05T18:48:34.911Z,48.10
2023-10-05T18:51:07.841Z,48.30
2023-10-05T18:53:38.490Z,47.90
2023-10-05T18:56:06.912Z,47.90
2023-10-05T18:58:36.112Z,48.00
2023-10-05T19:01:07.499Z,48.20
2023-10-05T19:03:37.188Z,47.40
2023-10-05T19:06:08.928Z,47.30
2023-10-05T19:08:38.642Z,47.50
2023-10-05T19:11:11.175Z,47.40
2023-10-05T19:13:40.026Z,47.70
2023-10-05T19:16:10.239Z,47.80
2023-10-05T19:18:39.621Z,47.00
2023-10-05T19:21:12.768Z,47.40
2023-10-05T19:23:43.257Z,47.90
2023-10-05T19:26:11.686Z,47.80
2023-10-05T19:28:40.201Z,47.00
2023-10-05T19:31:08.597Z,47.00
2023-10-05T19:33:36.996Z,46.80
2023-10-05T19:36:07.257Z,47.60
2023-10-05T19:38:35.649Z,47.90
2023-10-05T19:41:07.684Z,47.40
2023-10-05T19:43:36.067Z,47.40
2023-10-05T19:46:05.332Z,47.40
2023-10-05T19:48:34.571Z,47.60
2023-10-05T19:51:09.596Z,47.30
2023-10-05T19:53:41.253Z,47.40
2023-10-05T19:56:18.916Z,47.40
2023-10-05T19:58:55.113Z,47.60
2023-10-05T20:01:23.604Z,47.70
2023-10-05T20:03:52.723Z,47.80
2023-10-05T20:06:21.856Z,47.00
2023-10-05T20:08:51.386Z,46.50
2023-10-05T20:11:21.163Z,47.00
2023-10-05T20:13:49.562Z,46.90
2023-10-05T20:16:18.076Z,46.90
2023-10-05T20:18:48.590Z,46.90
2023-10-05T20:21:16.966Z,46.90
2023-10-05T20:23:45.560Z,46.30
2023-10-05T20:26:14.204Z,47.20
2023-10-05T20:28:44.132Z,47.50
2023-10-05T20:31:13.076Z,48.10
2023-10-05T20:33:43.293Z,47.70
2023-10-05T20:36:11.629Z,47.70
2023-10-05T20:38:42.030Z,47.90
2023-10-05T20:41:10.391Z,47.90
2023-10-05T20:43:38.815Z,48.10
2023-10-05T20:46:10.487Z,47.90
2023-10-05T20:48:39.098Z,48.20
2023-10-05T20:51:08.221Z,48.70
2023-10-05T20:53:36.659Z,48.50
2023-10-05T20:56:11.891Z,48.50
2023-10-05T20:58:40.817Z,49.50
2023-10-05T21:01:12.267Z,49.10
2023-10-05T21:03:40.974Z,49.20
2023-10-05T21:06:10.074Z,49.20
2023-10-05T21:08:41.602Z,48.70
2023-10-05T21:11:10.006Z,49.20
2023-10-05T21:13:38.417Z,48.70
2023-10-05T21:16:07.054Z,48.60
2023-10-05T21:18:37.205Z,49.10
2023-10-05T21:21:05.696Z,48.70
2023-10-05T21:23:34.101Z,48.70
2023-10-05T21:26:02.906Z,48.30
2023-10-05T21:28:31.284Z,48.30
2023-10-05T21:30:59.719Z,48.40
2023-10-05T21:33:28.505Z,48.70
2023-10-05T21:35:58.253Z,49.10
2023-10-05T21:38:26.727Z,49.60
2023-10-05T21:40:55.186Z,50.30
2023-10-05T21:43:23.813Z,50.40
2023-10-05T21:45:52.376Z,51.40
2023-10-05T21:48:20.765Z,51.00
2023-10-05T21:50:50.051Z,50.70
2023-10-05T21:53:19.916Z,50.50
2023-10-05T21:55:48.470Z,50.80
2023-10-05T21:58:16.948Z,50.90
2023-10-05T22:00:55.259Z,50.80
2023-10-05T22:03:23.789Z,50.40
2023-10-05T22:05:52.318Z,50.00
2023-10-05T22:08:24.590Z,50.80
2023-10-05T22:10:53.052Z,50.30
2023-10-05T22:13:21.474Z,50.40
2023-10-05T22:15:49.930Z,49.80
2023-10-05T22:18:18.905Z,49.80
2023-10-05T22:20:47.328Z,49.80
2023-10-05T22:23:15.651Z,50.00
2023-10-05T22:25:45.489Z,50.10
2023-10-05T22:28:14.033Z,49.80
2023-10-05T22:30:42.701Z,50.20
2023-10-05T22:33:11.596Z,50.50
2023-10-05T22:35:40.156Z,50.40
2023-10-05T22:38:11.557Z,50.50
2023-10-05T22:40:41.123Z,50.80
2023-10-05T22:43:11.742Z,51.00
2023-10-05T22:45:40.853Z,51.80
2023-10-05T22:48:09.412Z,51.30
2023-10-05T22:50:40.834Z,51.10
2023-10-05T22:53:09.295Z,50.90
2023-10-05T22:55:41.545Z,51.20
2023-10-05T22:58:12.872Z,51.60
2023-10-05T23:00:44.329Z,51.80
2023-10-05T23:03:14.305Z,51.80
2023-10-05T23:05:43.190Z,51.80
2023-10-05T23:08:13.012Z,51.90
2023-10-05T23:10:41.583Z,51.80
2023-10-05T23:13:11.375Z,51.70
2023-10-05T23:15:39.838Z,51.60
2023-10-05T23:18:08.497Z,51.70
2023-10-05T23:20:37.348Z,51.60
2023-10-05T23:23:09.180Z,52.10
2023-10-05T23:25:39.500Z,52.80
2023-10-05T23:28:09.557Z,53.00
2023-10-05T23:30:41.919Z,52.90
2023-10-05T23:33:11.054Z,53.20
2023-10-05T23:35:39.492Z,52.90
2023-10-05T23:38:13.307Z,52.90
2023-10-05T23:40:45.032Z,52.60
2023-10-05T23:43:17.565Z,52.20
2023-10-05T23:45:47.987Z,52.30
2023-10-05T23:48:16.686Z,51.50
2023-10-05T23:50:45.266Z,51.40
2023-10-05T23:53:15.200Z,51.30
2023-10-05T23:55:46.489Z,51.30
2023-10-05T23:58:16.606Z,51.20
